sensor_id;sensor_type;location;lat;lon;timestamp;P1;durP1;ratioP1;P2;durP2;ratioP2
58685;SDS011;44465;53.206;-6.106;2023-04-01T00:02:17;20.50;;;3.38;;
58685;SDS011;44465;53.206;-6.106;2023-04-01T00:04:43;19.77;;;3.30;;
58685;SDS011;44465;53.206;-6.106;2023-04-01T00:07:08;22.58;;;3.63;;
58685;SDS011;44465;53.206;-6.106;2023-04-01T00:09:34;13.70;;;2.67;;
58685;SDS011;44465;53.206;-6.106;2023-04-01T00:12:00;17.52;;;2.20;;
58685;SDS011;44465;53.206;-6.106;2023-04-01T00:14:26;17.42;;;2.78;;
58685;SDS011;44465;53.206;-6.106;2023-04-01T00:16:51;18.98;;;2.55;;
58685;SDS011;44465;53.206;-6.106;2023-04-01T00:19:17;11.52;;;2.70;;
58685;SDS011;44465;53.206;-6.106;2023-04-01T00:21:43;13.88;;;2.42;;
58685;SDS011;44465;53.206;-6.106;2023-04-01T00:24:09;14.75;;;2.65;;
58685;SDS011;44465;53.206;-6.106;2023-04-01T00:26:34;12.35;;;2.20;;
58685;SDS011;44465;53.206;-6.106;2023-04-01T00:29:00;19.48;;;2.92;;
58685;SDS011;44465;53.206;-6.106;2023-04-01T00:31:26;12.23;;;2.58;;
58685;SDS011;44465;53.206;-6.106;2023-04-01T00:33:52;12.93;;;2.47;;
58685;SDS011;44465;53.206;-6.106;2023-04-01T00:36:19;8.77;;;1.80;;
58685;SDS011;44465;53.206;-6.106;2023-04-01T00:38:47;14.02;;;2.55;;
58685;SDS011;44465;53.206;-6.106;2023-04-01T00:41:13;9.77;;;1.95;;
58685;SDS011;44465;53.206;-6.106;2023-04-01T00:43:44;8.07;;;2.50;;
58685;SDS011;44465;53.206;-6.106;2023-04-01T00:46:14;8.40;;;1.98;;
58685;SDS011;44465;53.206;-6.106;2023-04-01T00:48:51;6.53;;;1.73;;
58685;SDS011;44465;53.206;-6.106;2023-04-01T00:51:20;9.07;;;1.98;;
58685;SDS011;44465;53.206;-6.106;2023-04-01T00:53:50;9.20;;;1.63;;
58685;SDS011;44465;53.206;-6.106;2023-04-01T00:56:30;5.18;;;1.45;;
58685;SDS011;44465;53.206;-6.106;2023-04-01T00:59:00;5.47;;;1.73;;
58685;SDS011;44465;53.206;-6.106;2023-04-01T01:01:30;8.55;;;2.53;;
58685;SDS011;44465;53.206;-6.106;2023-04-01T01:03:56;5.00;;;1.10;;
58685;SDS011;44465;53.206;-6.106;2023-04-01T01:11:42;9.05;;;1.65;;
58685;SDS011;44465;53.206;-6.106;2023-04-01T01:14:16;4.05;;;1.55;;
58685;SDS011;44465;53.206;-6.106;2023-04-01T01:17:02;3.40;;;1.35;;
58685;SDS011;44465;53.206;-6.106;2023-04-01T01:20:14;7.63;;;1.75;;
58685;SDS011;44465;53.206;-6.106;2023-04-01T01:27:41;5.38;;;1.40;;
58685;SDS011;44465;53.206;-6.106;2023-04-01T01:33:17;5.55;;;1.25;;
58685;SDS011;44465;53.206;-6.106;2023-04-01T01:35:54;4.25;;;1.27;;
58685;SDS011;44465;53.206;-6.106;2023-04-01T01:38:24;4.20;;;0.98;;
58685;SDS011;44465;53.206;-6.106;2023-04-01T01:40:59;11.00;;;1.35;;
58685;SDS011;44465;53.206;-6.106;2023-04-01T01:43:32;3.03;;;0.90;;
58685;SDS011;44465;53.206;-6.106;2023-04-01T01:46:05;3.78;;;1.33;;
58685;SDS011;44465;53.206;-6.106;2023-04-01T01:48:34;3.75;;;1.17;;
58685;SDS011;44465;53.206;-6.106;2023-04-01T01:51:01;3.47;;;1.17;;
58685;SDS011;44465;53.206;-6.106;2023-04-01T01:53:28;3.27;;;0.93;;
58685;SDS011;44465;53.206;-6.106;2023-04-01T01:58:49;4.35;;;0.90;;
58685;SDS011;44465;53.206;-6.106;2023-04-01T02:01:20;1.95;;;0.98;;
58685;SDS011;44465;53.206;-6.106;2023-04-01T02:03:55;1.83;;;0.85;;
58685;SDS011;44465;53.206;-6.106;2023-04-01T02:08:57;3.35;;;0.80;;
58685;SDS011;44465;53.206;-6.106;2023-04-01T02:12:00;5.18;;;1.15;;
58685;SDS011;44465;53.206;-6.106;2023-04-01T02:15:22;2.30;;;0.70;;
58685;SDS011;44465;53.206;-6.106;2023-04-01T02:17:26;2.28;;;1.00;;
58685;SDS011;44465;53.206;-6.106;2023-04-01T02:19:56;2.15;;;0.88;;
58685;SDS011;44465;53.206;-6.106;2023-04-01T02:22:31;3.30;;;1.10;;
58685;SDS011;44465;53.206;-6.106;2023-04-01T02:24:59;4.05;;;1.30;;
58685;SDS011;44465;53.206;-6.106;2023-04-01T02:27:35;4.45;;;1.38;;
58685;SDS011;44465;53.206;-6.106;2023-04-01T02:30:01;1.73;;;0.75;;
58685;SDS011;44465;53.206;-6.106;2023-04-01T02:32:26;2.47;;;1.15;;
58685;SDS011;44465;53.206;-6.106;2023-04-01T02:35:04;2.03;;;0.70;;
58685;SDS011;44465;53.206;-6.106;2023-04-01T02:37:40;1.00;;;0.63;;
58685;SDS011;44465;53.206;-6.106;2023-04-01T02:40:08;2.03;;;0.98;;
58685;SDS011;44465;53.206;-6.106;2023-04-01T02:42:40;2.13;;;0.85;;
58685;SDS011;44465;53.206;-6.106;2023-04-01T02:45:06;1.77;;;0.70;;
58685;SDS011;44465;53.206;-6.106;2023-04-01T02:47:32;2.00;;;0.63;;
58685;SDS011;44465;53.206;-6.106;2023-04-01T02:49:57;1.15;;;0.70;;
58685;SDS011;44465;53.206;-6.106;2023-04-01T02:52:26;0.50;;;0.50;;
58685;SDS011;44465;53.206;-6.106;2023-04-01T02:54:53;1.40;;;0.98;;
58685;SDS011;44465;53.206;-6.106;2023-04-01T02:57:19;1.52;;;0.60;;
58685;SDS011;44465;53.206;-6.106;2023-04-01T02:59:45;1.75;;;0.55;;
58685;SDS011;44465;53.206;-6.106;2023-04-01T03:02:10;2.78;;;0.57;;
58685;SDS011;44465;53.206;-6.106;2023-04-01T03:04:36;2.58;;;0.63;;
58685;SDS011;44465;53.206;-6.106;2023-04-01T03:07:02;1.08;;;0.70;;
58685;SDS011;44465;53.206;-6.106;2023-04-01T03:09:27;1.40;;;0.70;;
58685;SDS011;44465;53.206;-6.106;2023-04-01T03:11:53;3.00;;;0.80;;
58685;SDS011;44465;53.206;-6.106;2023-04-01T03:14:19;1.45;;;1.08;;
58685;SDS011;44465;53.206;-6.106;2023-04-01T03:16:45;1.13;;;0.70;;
58685;SDS011;44465;53.206;-6.106;2023-04-01T03:19:11;1.63;;;0.60;;
58685;SDS011;44465;53.206;-6.106;2023-04-01T03:21:36;1.65;;;0.65;;
58685;SDS011;44465;53.206;-6.106;2023-04-01T03:24:02;0.50;;;0.50;;
58685;SDS011;44465;53.206;-6.106;2023-04-01T03:26:28;0.70;;;0.70;;
58685;SDS011;44465;53.206;-6.106;2023-04-01T03:28:54;1.80;;;0.70;;
58685;SDS011;44465;53.206;-6.106;2023-04-01T03:31:21;1.50;;;0.60;;
58685;SDS011;44465;53.206;-6.106;2023-04-01T03:33:51;0.50;;;0.47;;
58685;SDS011;44465;53.206;-6.106;2023-04-01T03:36:16;2.45;;;0.75;;
58685;SDS011;44465;53.206;-6.106;2023-04-01T03:38:43;0.80;;;0.50;;
58685;SDS011;44465;53.206;-6.106;2023-04-01T03:41:14;1.60;;;0.98;;
58685;SDS011;44465;53.206;-6.106;2023-04-01T03:43:42;0.50;;;0.50;;
58685;SDS011;44465;53.206;-6.106;2023-04-01T03:46:09;1.10;;;0.60;;
58685;SDS011;44465;53.206;-6.106;2023-04-01T03:48:35;0.65;;;0.50;;
58685;SDS011;44465;53.206;-6.106;2023-04-01T03:51:01;1.08;;;0.80;;
58685;SDS011;44465;53.206;-6.106;2023-04-01T03:53:27;0.52;;;0.50;;
58685;SDS011;44465;53.206;-6.106;2023-04-01T03:55:55;0.52;;;0.40;;
58685;SDS011;44465;53.206;-6.106;2023-04-01T03:58:21;0.60;;;0.40;;
58685;SDS011;44465;53.206;-6.106;2023-04-01T04:00:47;0.45;;;0.45;;
58685;SDS011;44465;53.206;-6.106;2023-04-01T04:03:13;0.70;;;0.57;;
58685;SDS011;44465;53.206;-6.106;2023-04-01T04:05:45;0.63;;;0.60;;
58685;SDS011;44465;53.206;-6.106;2023-04-01T04:08:12;0.52;;;0.50;;
58685;SDS011;44465;53.206;-6.106;2023-04-01T04:10:37;0.82;;;0.63;;
58685;SDS011;44465;53.206;-6.106;2023-04-01T04:13:03;0.43;;;0.43;;
58685;SDS011;44465;53.206;-6.106;2023-04-01T04:15:31;0.50;;;0.50;;
58685;SDS011;44465;53.206;-6.106;2023-04-01T04:17:57;0.40;;;0.40;;
58685;SDS011;44465;53.206;-6.106;2023-04-01T04:20:22;0.55;;;0.55;;
58685;SDS011;44465;53.206;-6.106;2023-04-01T04:22:48;1.02;;;0.60;;
58685;SDS011;44465;53.206;-6.106;2023-04-01T04:25:14;0.40;;;0.40;;
58685;SDS011;44465;53.206;-6.106;2023-04-01T04:27:39;0.50;;;0.50;;
58685;SDS011;44465;53.206;-6.106;2023-04-01T04:30:07;0.80;;;0.50;;
58685;SDS011;44465;53.206;-6.106;2023-04-01T04:32:35;1.13;;;0.55;;
58685;SDS011;44465;53.206;-6.106;2023-04-01T04:35:00;0.55;;;0.55;;
58685;SDS011;44465;53.206;-6.106;2023-04-01T04:37:26;0.50;;;0.50;;
58685;SDS011;44465;53.206;-6.106;2023-04-01T04:39:52;0.77;;;0.40;;
58685;SDS011;44465;53.206;-6.106;2023-04-01T04:42:18;0.55;;;0.50;;
58685;SDS011;44465;53.206;-6.106;2023-04-01T04:44:44;0.80;;;0.60;;
58685;SDS011;44465;53.206;-6.106;2023-04-01T04:47:10;0.52;;;0.50;;
58685;SDS011;44465;53.206;-6.106;2023-04-01T04:49:35;2.13;;;0.60;;
58685;SDS011;44465;53.206;-6.106;2023-04-01T04:52:05;0.30;;;0.30;;
58685;SDS011;44465;53.206;-6.106;2023-04-01T04:54:31;0.35;;;0.35;;
58685;SDS011;44465;53.206;-6.106;2023-04-01T04:56:59;0.98;;;0.30;;
58685;SDS011;44465;53.206;-6.106;2023-04-01T04:59:27;0.80;;;0.40;;
58685;SDS011;44465;53.206;-6.106;2023-04-01T05:02:01;1.02;;;0.40;;
58685;SDS011;44465;53.206;-6.106;2023-04-01T05:04:27;0.30;;;0.30;;
58685;SDS011;44465;53.206;-6.106;2023-04-01T05:06:53;0.43;;;0.40;;
58685;SDS011;44465;53.206;-6.106;2023-04-01T05:09:18;0.52;;;0.45;;
58685;SDS011;44465;53.206;-6.106;2023-04-01T05:11:44;0.40;;;0.40;;
58685;SDS011;44465;53.206;-6.106;2023-04-01T05:14:14;0.38;;;0.32;;
58685;SDS011;44465;53.206;-6.106;2023-04-01T05:16:44;1.05;;;0.60;;
58685;SDS011;44465;53.206;-6.106;2023-04-01T05:19:09;0.73;;;0.30;;
58685;SDS011;44465;53.206;-6.106;2023-04-01T05:21:35;0.40;;;0.40;;
58685;SDS011;44465;53.206;-6.106;2023-04-01T05:24:09;0.50;;;0.50;;
58685;SDS011;44465;53.206;-6.106;2023-04-01T05:26:35;0.40;;;0.40;;
58685;SDS011;44465;53.206;-6.106;2023-04-01T05:29:02;0.43;;;0.38;;
58685;SDS011;44465;53.206;-6.106;2023-04-01T05:31:29;0.40;;;0.40;;
58685;SDS011;44465;53.206;-6.106;2023-04-01T05:33:56;0.30;;;0.30;;
58685;SDS011;44465;53.206;-6.106;2023-04-01T05:36:21;0.30;;;0.30;;
58685;SDS011;44465;53.206;-6.106;2023-04-01T05:38:47;0.40;;;0.40;;
58685;SDS011;44465;53.206;-6.106;2023-04-01T05:41:15;0.40;;;0.40;;
58685;SDS011;44465;53.206;-6.106;2023-04-01T05:43:44;0.50;;;0.50;;
58685;SDS011;44465;53.206;-6.106;2023-04-01T05:46:28;0.50;;;0.40;;
58685;SDS011;44465;53.206;-6.106;2023-04-01T05:48:58;0.47;;;0.40;;
58685;SDS011;44465;53.206;-6.106;2023-04-01T05:51:25;0.38;;;0.25;;
58685;SDS011;44465;53.206;-6.106;2023-04-01T05:53:50;0.45;;;0.45;;
58685;SDS011;44465;53.206;-6.106;2023-04-01T05:56:17;0.32;;;0.32;;
58685;SDS011;44465;53.206;-6.106;2023-04-01T05:58:49;0.30;;;0.30;;
58685;SDS011;44465;53.206;-6.106;2023-04-01T06:01:18;0.50;;;0.50;;
58685;SDS011;44465;53.206;-6.106;2023-04-01T06:03:44;0.40;;;0.40;;
58685;SDS011;44465;53.206;-6.106;2023-04-01T06:06:14;0.47;;;0.40;;
58685;SDS011;44465;53.206;-6.106;2023-04-01T06:08:49;0.50;;;0.50;;
58685;SDS011;44465;53.206;-6.106;2023-04-01T06:11:19;0.40;;;0.40;;
58685;SDS011;44465;53.206;-6.106;2023-04-01T06:13:59;0.40;;;0.32;;
58685;SDS011;44465;53.206;-6.106;2023-04-01T06:19:25;0.30;;;0.30;;
58685;SDS011;44465;53.206;-6.106;2023-04-01T06:24:45;0.30;;;0.30;;
58685;SDS011;44465;53.206;-6.106;2023-04-01T06:41:16;0.30;;;0.30;;
58685;SDS011;44465;53.206;-6.106;2023-04-01T06:46:45;2.00;;;0.30;;
58685;SDS011;44465;53.206;-6.106;2023-04-01T06:52:42;0.30;;;0.30;;
58685;SDS011;44465;53.206;-6.106;2023-04-01T06:55:41;0.20;;;0.20;;
58685;SDS011;44465;53.206;-6.106;2023-04-01T06:58:23;0.20;;;0.20;;
58685;SDS011;44465;53.206;-6.106;2023-04-01T07:06:30;0.32;;;0.32;;
58685;SDS011;44465;53.206;-6.106;2023-04-01T07:09:03;0.20;;;0.20;;
58685;SDS011;44465;53.206;-6.106;2023-04-01T07:11:56;0.38;;;0.38;;
58685;SDS011;44465;53.206;-6.106;2023-04-01T07:15:02;0.43;;;0.43;;
58685;SDS011;44465;53.206;-6.106;2023-04-01T07:17:38;0.40;;;0.40;;
58685;SDS011;44465;53.206;-6.106;2023-04-01T07:20:25;0.38;;;0.38;;
58685;SDS011;44465;53.206;-6.106;2023-04-01T07:22:59;0.20;;;0.20;;
58685;SDS011;44465;53.206;-6.106;2023-04-01T07:25:46;0.40;;;0.40;;
58685;SDS011;44465;53.206;-6.106;2023-04-01T07:28:35;0.47;;;0.47;;
58685;SDS011;44465;53.206;-6.106;2023-04-01T07:36:52;0.50;;;0.30;;
58685;SDS011;44465;53.206;-6.106;2023-04-01T07:42:16;0.57;;;0.40;;
58685;SDS011;44465;53.206;-6.106;2023-04-01T07:50:31;0.40;;;0.30;;
58685;SDS011;44465;53.206;-6.106;2023-04-01T07:53:18;0.32;;;0.32;;
58685;SDS011;44465;53.206;-6.106;2023-04-01T07:56:15;0.20;;;0.20;;
58685;SDS011;44465;53.206;-6.106;2023-04-01T08:02:06;0.30;;;0.30;;
58685;SDS011;44465;53.206;-6.106;2023-04-01T08:22:09;0.40;;;0.40;;
58685;SDS011;44465;53.206;-6.106;2023-04-01T08:24:43;0.35;;;0.35;;
58685;SDS011;44465;53.206;-6.106;2023-04-01T08:27:20;0.40;;;0.35;;
58685;SDS011;44465;53.206;-6.106;2023-04-01T08:30:01;0.43;;;0.40;;
58685;SDS011;44465;53.206;-6.106;2023-04-01T08:32:47;0.57;;;0.55;;
58685;SDS011;44465;53.206;-6.106;2023-04-01T08:35:24;1.55;;;0.50;;
58685;SDS011;44465;53.206;-6.106;2023-04-01T08:38:05;2.80;;;0.50;;
58685;SDS011;44465;53.206;-6.106;2023-04-01T08:40:51;0.85;;;0.75;;
58685;SDS011;44465;53.206;-6.106;2023-04-01T09:03:22;4.28;;;0.70;;
58685;SDS011;44465;53.206;-6.106;2023-04-01T09:17:20;2.60;;;0.73;;
58685;SDS011;44465;53.206;-6.106;2023-04-01T09:25:55;2.90;;;0.60;;
58685;SDS011;44465;53.206;-6.106;2023-04-01T09:40:03;0.63;;;0.63;;
58685;SDS011;44465;53.206;-6.106;2023-04-01T10:02:31;3.13;;;0.60;;
58685;SDS011;44465;53.206;-6.106;2023-04-01T10:09:12;1.08;;;0.50;;
58685;SDS011;44465;53.206;-6.106;2023-04-01T10:14:37;1.85;;;0.80;;
58685;SDS011;44465;53.206;-6.106;2023-04-01T10:22:34;15.65;;;2.00;;
58685;SDS011;44465;53.206;-6.106;2023-04-01T10:31:40;7.68;;;2.13;;
58685;SDS011;44465;53.206;-6.106;2023-04-01T10:34:29;29.77;;;3.58;;
58685;SDS011;44465;53.206;-6.106;2023-04-01T10:37:34;60.58;;;5.55;;
58685;SDS011;44465;53.206;-6.106;2023-04-01T10:55:31;43.15;;;4.97;;
58685;SDS011;44465;53.206;-6.106;2023-04-01T11:02:08;78.55;;;8.13;;
58685;SDS011;44465;53.206;-6.106;2023-04-01T11:06:21;54.65;;;7.72;;
58685;SDS011;44465;53.206;-6.106;2023-04-01T11:39:14;24.60;;;4.95;;
58685;SDS011;44465;53.206;-6.106;2023-04-01T11:53:26;26.98;;;5.07;;
58685;SDS011;44465;53.206;-6.106;2023-04-01T12:07:21;22.52;;;3.67;;
58685;SDS011;44465;53.206;-6.106;2023-04-01T12:37:36;17.17;;;2.63;;
58685;SDS011;44465;53.206;-6.106;2023-04-01T12:45:02;28.98;;;3.28;;
58685;SDS011;44465;53.206;-6.106;2023-04-01T12:55:38;26.40;;;4.20;;
58685;SDS011;44465;53.206;-6.106;2023-04-01T13:03:24;38.00;;;8.07;;
58685;SDS011;44465;53.206;-6.106;2023-04-01T13:11:41;80.43;;;22.45;;
58685;SDS011;44465;53.206;-6.106;2023-04-01T13:17:13;112.32;;;30.50;;
58685;SDS011;44465;53.206;-6.106;2023-04-01T13:19:58;138.65;;;37.92;;
58685;SDS011;44465;53.206;-6.106;2023-04-01T13:28:06;178.48;;;49.35;;
58685;SDS011;44465;53.206;-6.106;2023-04-01T13:30:40;180.82;;;50.17;;
58685;SDS011;44465;53.206;-6.106;2023-04-01T13:38:17;190.30;;;53.15;;
58685;SDS011;44465;53.206;-6.106;2023-04-01T13:43:39;182.20;;;52.70;;
58685;SDS011;44465;53.206;-6.106;2023-04-01T14:00:19;214.48;;;63.88;;
58685;SDS011;44465;53.206;-6.106;2023-04-01T14:11:36;214.30;;;63.42;;
58685;SDS011;44465;53.206;-6.106;2023-04-01T14:20:26;224.93;;;68.88;;
58685;SDS011;44465;53.206;-6.106;2023-04-01T14:31:44;258.15;;;79.60;;
58685;SDS011;44465;53.206;-6.106;2023-04-01T14:51:35;243.88;;;79.43;;
58685;SDS011;44465;53.206;-6.106;2023-04-01T14:56:37;251.40;;;80.22;;
58685;SDS011;44465;53.206;-6.106;2023-04-01T15:04:37;245.90;;;77.82;;
58685;SDS011;44465;53.206;-6.106;2023-04-01T15:13:05;220.50;;;73.43;;
58685;SDS011;44465;53.206;-6.106;2023-04-01T15:15:53;275.02;;;78.82;;
58685;SDS011;44465;53.206;-6.106;2023-04-01T15:43:41;209.68;;;62.67;;
58685;SDS011;44465;53.206;-6.106;2023-04-01T15:52:10;203.70;;;59.88;;
58685;SDS011;44465;53.206;-6.106;2023-04-01T15:57:45;195.57;;;58.78;;
58685;SDS011;44465;53.206;-6.106;2023-04-01T16:00:27;197.60;;;60.88;;
58685;SDS011;44465;53.206;-6.106;2023-04-01T16:06:23;180.30;;;57.88;;
58685;SDS011;44465;53.206;-6.106;2023-04-01T16:19:07;178.32;;;52.70;;
58685;SDS011;44465;53.206;-6.106;2023-04-01T16:32:57;169.15;;;54.50;;
58685;SDS011;44465;53.206;-6.106;2023-04-01T16:43:52;152.52;;;50.92;;
58685;SDS011;44465;53.206;-6.106;2023-04-01T16:54:54;152.85;;;50.30;;
58685;SDS011;44465;53.206;-6.106;2023-04-01T16:57:25;151.30;;;48.42;;
58685;SDS011;44465;53.206;-6.106;2023-04-01T17:02:43;146.40;;;47.78;;
58685;SDS011;44465;53.206;-6.106;2023-04-01T17:23:52;133.73;;;46.55;;
58685;SDS011;44465;53.206;-6.106;2023-04-01T17:29:24;129.20;;;45.80;;
58685;SDS011;44465;53.206;-6.106;2023-04-01T17:32:17;124.97;;;43.22;;
58685;SDS011;44465;53.206;-6.106;2023-04-01T17:43:07;130.85;;;44.72;;
58685;SDS011;44465;53.206;-6.106;2023-04-01T17:45:37;113.75;;;40.40;;
58685;SDS011;44465;53.206;-6.106;2023-04-01T17:59:38;114.18;;;40.20;;
58685;SDS011;44465;53.206;-6.106;2023-04-01T18:05:01;114.28;;;39.45;;
58685;SDS011;44465;53.206;-6.106;2023-04-01T18:21:47;114.47;;;38.97;;
58685;SDS011;44465;53.206;-6.106;2023-04-01T18:27:28;104.93;;;37.67;;
58685;SDS011;44465;53.206;-6.106;2023-04-01T18:30:17;95.75;;;34.38;;
58685;SDS011;44465;53.206;-6.106;2023-04-01T18:32:46;91.57;;;36.25;;
58685;SDS011;44465;53.206;-6.106;2023-04-01T18:38:33;97.95;;;34.97;;
58685;SDS011;44465;53.206;-6.106;2023-04-01T18:46:37;99.22;;;34.45;;
58685;SDS011;44465;53.206;-6.106;2023-04-01T18:52:43;90.85;;;33.75;;
58685;SDS011;44465;53.206;-6.106;2023-04-01T19:02:46;93.57;;;35.47;;
58685;SDS011;44465;53.206;-6.106;2023-04-01T19:05:33;89.20;;;34.75;;
58685;SDS011;44465;53.206;-6.106;2023-04-01T19:08:17;95.57;;;35.97;;
58685;SDS011;44465;53.206;-6.106;2023-04-01T19:10:53;87.60;;;35.00;;
58685;SDS011;44465;53.206;-6.106;2023-04-01T19:18:47;92.78;;;35.25;;
58685;SDS011;44465;53.206;-6.106;2023-04-01T20:01:56;84.47;;;32.50;;
58685;SDS011;44465;53.206;-6.106;2023-04-01T20:04:23;83.43;;;34.55;;
58685;SDS011;44465;53.206;-6.106;2023-04-01T20:15:22;82.32;;;32.38;;
58685;SDS011;44465;53.206;-6.106;2023-04-01T20:17:57;75.82;;;31.85;;
58685;SDS011;44465;53.206;-6.106;2023-04-01T20:20:26;79.70;;;34.38;;
58685;SDS011;44465;53.206;-6.106;2023-04-01T20:27:58;74.93;;;29.48;;
58685;SDS011;44465;53.206;-6.106;2023-04-01T20:30:34;77.65;;;32.95;;
58685;SDS011;44465;53.206;-6.106;2023-04-01T20:41:51;80.38;;;33.25;;
58685;SDS011;44465;53.206;-6.106;2023-04-01T20:44:39;74.68;;;33.20;;
58685;SDS011;44465;53.206;-6.106;2023-04-01T20:53:05;77.57;;;34.38;;
58685;SDS011;44465;53.206;-6.106;2023-04-01T20:55:47;72.60;;;33.20;;
58685;SDS011;44465;53.206;-6.106;2023-04-01T20:58:38;75.57;;;32.85;;
58685;SDS011;44465;53.206;-6.106;2023-04-01T21:17:08;64.55;;;28.48;;
58685;SDS011;44465;53.206;-6.106;2023-04-01T21:20:05;63.80;;;29.23;;
58685;SDS011;44465;53.206;-6.106;2023-04-01T21:25:30;57.63;;;26.58;;
58685;SDS011;44465;53.206;-6.106;2023-04-01T21:28:05;62.97;;;26.40;;
58685;SDS011;44465;53.206;-6.106;2023-04-01T21:39:19;54.95;;;23.45;;
58685;SDS011;44465;53.206;-6.106;2023-04-01T21:47:16;53.50;;;22.15;;
58685;SDS011;44465;53.206;-6.106;2023-04-01T22:17:32;39.58;;;17.83;;
58685;SDS011;44465;53.206;-6.106;2023-04-01T22:26:05;38.85;;;15.48;;
58685;SDS011;44465;53.206;-6.106;2023-04-01T22:28:52;32.63;;;14.13;;
58685;SDS011;44465;53.206;-6.106;2023-04-01T22:31:44;37.50;;;16.05;;
58685;SDS011;44465;53.206;-6.106;2023-04-01T22:44:56;32.10;;;13.18;;
58685;SDS011;44465;53.206;-6.106;2023-04-01T22:47:40;33.08;;;13.50;;
58685;SDS011;44465;53.206;-6.106;2023-04-01T22:50:17;31.52;;;12.88;;
58685;SDS011;44465;53.206;-6.106;2023-04-01T22:52:47;27.33;;;11.55;;
58685;SDS011;44465;53.206;-6.106;2023-04-01T22:55:21;27.27;;;11.88;;
58685;SDS011;44465;53.206;-6.106;2023-04-01T22:57:51;23.65;;;10.88;;
58685;SDS011;44465;53.206;-6.106;2023-04-01T23:01:06;25.92;;;10.55;;
58685;SDS011;44465;53.206;-6.106;2023-04-01T23:03:19;23.00;;;10.40;;
58685;SDS011;44465;53.206;-6.106;2023-04-01T23:05:54;25.40;;;9.93;;
58685;SDS011;44465;53.206;-6.106;2023-04-01T23:10:50;25.10;;;10.30;;
58685;SDS011;44465;53.206;-6.106;2023-04-01T23:13:22;23.88;;;9.75;;
58685;SDS011;44465;53.206;-6.106;2023-04-01T23:15:52;20.48;;;9.68;;
58685;SDS011;44465;53.206;-6.106;2023-04-01T23:18:22;19.92;;;8.82;;
58685;SDS011;44465;53.206;-6.106;2023-04-01T23:26:39;20.58;;;9.20;;
58685;SDS011;44465;53.206;-6.106;2023-04-01T23:29:15;18.30;;;7.90;;
58685;SDS011;44465;53.206;-6.106;2023-04-01T23:31:44;20.83;;;7.97;;
58685;SDS011;44465;53.206;-6.106;2023-04-01T23:36:37;17.52;;;7.03;;
58685;SDS011;44465;53.206;-6.106;2023-04-01T23:39:11;20.73;;;7.85;;
58685;SDS011;44465;53.206;-6.106;2023-04-01T23:41:47;18.95;;;7.30;;
58685;SDS011;44465;53.206;-6.106;2023-04-01T23:44:13;14.48;;;7.63;;
58685;SDS011;44465;53.206;-6.106;2023-04-01T23:46:41;17.43;;;7.57;;
58685;SDS011;44465;53.206;-6.106;2023-04-01T23:49:13;18.45;;;7.35;;
58685;SDS011;44465;53.206;-6.106;2023-04-01T23:54:42;18.42;;;6.50;;
58685;SDS011;44465;53.206;-6.106;2023-04-01T23:57:15;18.00;;;6.35;;
58685;SDS011;44465;53.206;-6.106;2023-04-01T23:59:59;13.32;;;6.25;;
